createdAt,value
2023-07-19T00:01:34.371Z,15.03
2023-07-19T00:04:03.760Z,15.16
2023-07-19T00:06:31.873Z,15.26
2023-07-19T00:09:01.270Z,15.13
2023-07-19T00:11:30.400Z,15.10
2023-07-19T00:13:58.361Z,14.97
2023-07-19T00:16:29.285Z,15.03
2023-07-19T00:19:00.089Z,15.28
2023-07-19T00:21:34.593Z,15.41
2023-07-19T00:24:04.974Z,15.46
2023-07-19T00:26:32.928Z,15.20
2023-07-19T00:29:01.838Z,15.10
2023-07-19T00:31:29.806Z,15.10
2023-07-19T00:33:59.207Z,15.11
2023-07-19T00:36:27.421Z,15.23
2023-07-19T00:38:56.057Z,15.23
2023-07-19T00:41:26.317Z,15.12
2023-07-19T00:43:54.151Z,15.22
2023-07-19T00:46:22.846Z,15.26
2023-07-19T00:48:51.446Z,15.27
2023-07-19T00:51:21.389Z,15.16
2023-07-19T00:53:51.249Z,15.37
2023-07-19T00:56:21.260Z,15.21
2023-07-19T00:58:52.312Z,15.01
2023-07-19T01:01:23.361Z,15.06
2023-07-19T01:03:52.385Z,14.84
2023-07-19T01:06:21.175Z,14.85
2023-07-19T01:08:51.187Z,14.79
2023-07-19T01:11:19.609Z,14.50
2023-07-19T01:13:56.517Z,14.58
2023-07-19T01:16:26.588Z,14.85
2023-07-19T01:18:54.700Z,14.91
2023-07-19T01:21:25.157Z,14.83
2023-07-19T01:23:56.977Z,14.98
2023-07-19T01:26:25.942Z,15.01
2023-07-19T01:28:57.469Z,15.04
2023-07-19T01:31:26.157Z,14.83
2023-07-19T01:33:54.138Z,14.83
2023-07-19T01:36:22.878Z,14.64
2023-07-19T01:38:51.594Z,14.59
2023-07-19T01:41:21.308Z,14.59
2023-07-19T01:43:49.935Z,14.57
2023-07-19T01:46:18.242Z,14.69
2023-07-19T01:48:47.221Z,14.52
2023-07-19T01:51:15.179Z,14.51
2023-07-19T01:53:43.292Z,14.55
2023-07-19T01:56:12.182Z,14.50
2023-07-19T01:58:41.698Z,14.37
2023-07-19T02:01:10.452Z,14.25
2023-07-19T02:03:38.461Z,14.29
2023-07-19T02:06:07.000Z,14.12
2023-07-19T02:08:35.494Z,14.13
2023-07-19T02:11:03.546Z,14.08
2023-07-19T02:13:31.724Z,14.10
2023-07-19T02:16:01.323Z,14.18
2023-07-19T02:18:29.612Z,14.16
2023-07-19T02:20:58.168Z,14.16
2023-07-19T02:23:26.235Z,14.06
2023-07-19T02:25:56.389Z,14.10
2023-07-19T02:28:24.385Z,14.00
2023-07-19T02:30:52.362Z,13.85
2023-07-19T02:33:22.925Z,13.54
2023-07-19T02:35:55.870Z,13.47
2023-07-19T02:38:24.746Z,13.45
2023-07-19T02:40:52.800Z,13.62
2023-07-19T02:43:21.316Z,13.82
2023-07-19T02:45:49.801Z,13.86
2023-07-19T02:48:17.931Z,13.71
2023-07-19T02:50:48.778Z,13.84
2023-07-19T02:53:18.456Z,13.75
2023-07-19T02:55:46.694Z,13.76
2023-07-19T02:58:16.838Z,13.78
2023-07-19T03:00:45.610Z,13.71
2023-07-19T03:03:14.954Z,13.60
2023-07-19T03:05:47.617Z,13.62
2023-07-19T03:08:16.480Z,13.72
2023-07-19T03:10:44.847Z,13.86
2023-07-19T03:13:13.470Z,13.76
2023-07-19T03:15:47.725Z,13.75
2023-07-19T03:18:16.060Z,13.90
2023-07-19T03:20:45.288Z,13.94
2023-07-19T03:23:14.950Z,14.14
2023-07-19T03:25:43.349Z,14.15
2023-07-19T03:28:11.422Z,14.13
2023-07-19T03:30:40.407Z,14.23
2023-07-19T03:33:09.336Z,14.06
2023-07-19T03:35:37.384Z,14.10
2023-07-19T03:38:05.822Z,14.26
2023-07-19T03:40:35.235Z,14.19
2023-07-19T03:43:04.475Z,14.38
2023-07-19T03:45:32.469Z,14.18
2023-07-19T03:48:00.947Z,14.10
2023-07-19T03:50:31.634Z,14.28
2023-07-19T03:52:59.599Z,14.36
2023-07-19T03:55:28.136Z,14.51
2023-07-19T03:57:58.799Z,14.51
2023-07-19T04:00:28.264Z,14.60
2023-07-19T04:02:57.113Z,14.64
2023-07-19T04:05:25.679Z,15.39
2023-07-19T04:07:55.690Z,15.58
2023-07-19T04:10:24.688Z,15.47
2023-07-19T04:12:52.630Z,15.57
2023-07-19T04:15:23.380Z,15.61
2023-07-19T04:17:51.480Z,15.51
2023-07-19T04:20:19.665Z,15.65
2023-07-19T04:22:48.153Z,15.76
2023-07-19T04:25:16.267Z,15.83
2023-07-19T04:27:44.272Z,15.87
2023-07-19T04:30:13.432Z,15.95
2023-07-19T04:32:43.765Z,16.06
2023-07-19T04:35:12.436Z,16.09
2023-07-19T04:37:41.229Z,16.14
2023-07-19T04:40:11.036Z,16.22
2023-07-19T04:42:41.219Z,16.40
2023-07-19T04:45:11.383Z,16.50
2023-07-19T04:47:40.021Z,16.52
2023-07-19T04:50:12.261Z,16.70
2023-07-19T04:52:40.926Z,16.62
2023-07-19T04:55:10.044Z,16.50
2023-07-19T04:57:39.896Z,16.66
2023-07-19T05:00:12.989Z,16.65
2023-07-19T05:02:42.251Z,16.67
2023-07-19T05:05:13.406Z,16.63
2023-07-19T05:07:42.786Z,16.68
2023-07-19T05:10:11.529Z,16.72
2023-07-19T05:12:40.842Z,16.84
2023-07-19T05:15:10.058Z,16.95
2023-07-19T05:17:38.518Z,17.01
2023-07-19T05:20:09.746Z,17.16
2023-07-19T05:22:39.850Z,17.16
2023-07-19T05:25:10.648Z,17.34
2023-07-19T05:27:38.641Z,17.26
2023-07-19T05:30:07.730Z,17.16
2023-07-19T05:32:35.847Z,17.26
2023-07-19T05:35:03.868Z,17.22
2023-07-19T05:37:32.270Z,17.24
2023-07-19T05:40:01.995Z,17.36
2023-07-19T05:42:29.973Z,17.42
2023-07-19T05:44:57.999Z,17.50
2023-07-19T05:47:28.713Z,17.46
2023-07-19T05:49:57.928Z,17.45
2023-07-19T05:52:28.871Z,17.51
2023-07-19T05:54:57.207Z,17.64
2023-07-19T05:57:26.598Z,17.48
2023-07-19T06:00:00.817Z,17.47
2023-07-19T06:02:53.343Z,17.65
2023-07-19T06:05:24.150Z,17.54
2023-07-19T06:07:53.340Z,17.88
2023-07-19T06:10:22.468Z,17.81
2023-07-19T06:12:53.240Z,17.95
2023-07-19T06:15:21.757Z,17.97
2023-07-19T06:17:50.191Z,18.16
2023-07-19T06:20:18.262Z,18.39
2023-07-19T06:22:47.474Z,18.46
2023-07-19T06:25:16.081Z,18.36
2023-07-19T06:27:44.728Z,18.37
2023-07-19T06:30:15.588Z,18.35
2023-07-19T06:32:44.128Z,18.34
2023-07-19T06:35:13.404Z,18.29
2023-07-19T06:37:42.011Z,18.26
2023-07-19T06:40:11.032Z,18.33
2023-07-19T06:42:39.752Z,18.36
2023-07-19T06:45:08.720Z,18.36
2023-07-19T06:47:39.093Z,18.59
2023-07-19T06:50:08.613Z,18.52
2023-07-19T06:52:37.080Z,18.57
2023-07-19T06:55:06.190Z,18.56
2023-07-19T06:57:34.753Z,18.43
2023-07-19T07:00:04.354Z,18.23
2023-07-19T07:02:32.396Z,18.32
2023-07-19T07:05:02.917Z,18.32
2023-07-19T07:07:30.886Z,18.39
2023-07-19T07:09:59.256Z,18.54
2023-07-19T07:12:28.202Z,18.33
2023-07-19T07:14:56.126Z,18.30
2023-07-19T07:17:24.712Z,18.38
2023-07-19T07:19:54.850Z,18.76
2023-07-19T07:22:24.420Z,18.56
2023-07-19T07:24:52.356Z,18.72
2023-07-19T07:27:20.568Z,18.70
2023-07-19T07:29:48.558Z,18.39
2023-07-19T07:32:16.583Z,18.44
2023-07-19T07:34:45.074Z,18.19
2023-07-19T07:37:13.218Z,18.26
2023-07-19T07:39:43.033Z,18.54
2023-07-19T07:42:11.704Z,18.84
2023-07-19T07:44:39.707Z,19.16
2023-07-19T07:47:09.375Z,18.85
2023-07-19T07:49:37.373Z,18.97
2023-07-19T07:52:06.895Z,18.76
2023-07-19T07:54:35.065Z,18.72
2023-07-19T07:57:05.251Z,18.88
2023-07-19T07:59:33.664Z,18.86
2023-07-19T08:02:04.475Z,18.72
2023-07-19T08:04:35.880Z,18.87
2023-07-19T08:07:03.950Z,19.15
2023-07-19T08:09:32.377Z,19.40
2023-07-19T08:12:00.798Z,19.62
2023-07-19T08:14:30.105Z,19.49
2023-07-19T08:17:01.360Z,19.18
2023-07-19T08:19:30.726Z,18.94
2023-07-19T08:22:07.596Z,18.89
2023-07-19T08:24:36.000Z,19.16
2023-07-19T08:27:04.195Z,19.45
2023-07-19T08:29:34.413Z,19.71
2023-07-19T08:32:02.335Z,19.73
2023-07-19T08:34:30.740Z,19.62
2023-07-19T08:36:58.748Z,19.90
2023-07-19T08:39:28.772Z,20.31
2023-07-19T08:41:56.771Z,20.40
2023-07-19T08:44:25.224Z,20.64
2023-07-19T08:46:54.818Z,20.48
2023-07-19T08:49:23.911Z,20.37
2023-07-19T08:51:52.173Z,20.20
2023-07-19T08:54:20.197Z,20.50
2023-07-19T08:56:48.704Z,20.55
2023-07-19T08:59:16.676Z,20.85
2023-07-19T09:01:45.295Z,20.87
2023-07-19T09:04:15.773Z,20.71
2023-07-19T09:06:45.363Z,20.59
2023-07-19T09:09:15.254Z,20.37
2023-07-19T09:11:45.055Z,20.10
2023-07-19T09:14:13.059Z,20.34
2023-07-19T09:16:41.521Z,20.68
2023-07-19T09:19:10.933Z,21.04
2023-07-19T09:21:43.278Z,20.93
2023-07-19T09:24:13.044Z,21.15
2023-07-19T09:26:50.766Z,21.37
2023-07-19T09:29:20.168Z,21.12
2023-07-19T09:31:55.840Z,20.50
2023-07-19T09:34:24.948Z,20.80
2023-07-19T09:36:54.912Z,21.59
2023-07-19T09:39:24.191Z,21.90
2023-07-19T09:41:53.752Z,22.09
2023-07-19T09:44:23.322Z,21.87
2023-07-19T09:46:51.967Z,22.06
2023-07-19T09:49:19.918Z,21.91
2023-07-19T09:51:51.112Z,21.53
2023-07-19T09:54:20.536Z,21.58
2023-07-19T09:56:48.508Z,21.41
2023-07-19T09:59:21.037Z,21.65
2023-07-19T10:01:50.660Z,22.17
2023-07-19T10:04:26.488Z,22.56
2023-07-19T10:07:08.753Z,22.24
2023-07-19T10:09:43.494Z,22.26
2023-07-19T10:12:26.501Z,22.23
2023-07-19T10:14:58.689Z,22.53
2023-07-19T10:17:26.956Z,23.00
2023-07-19T10:20:09.574Z,23.10
2023-07-19T10:22:54.012Z,23.27
2023-07-19T10:25:28.721Z,23.03
2023-07-19T10:28:02.291Z,23.49
2023-07-19T10:30:55.927Z,24.26
2023-07-19T10:33:25.887Z,23.82
2023-07-19T10:35:55.928Z,23.62
2023-07-19T10:38:25.332Z,23.34
2023-07-19T10:41:02.149Z,23.08
2023-07-19T10:43:46.925Z,22.85
2023-07-19T10:46:20.189Z,22.33
2023-07-19T10:48:52.012Z,22.12
2023-07-19T10:51:21.448Z,21.95
2023-07-19T10:53:58.904Z,21.95
2023-07-19T10:56:29.875Z,21.76
2023-07-19T10:59:02.553Z,21.48
2023-07-19T11:01:32.258Z,21.77
2023-07-19T11:04:06.518Z,21.91
2023-07-19T11:06:34.889Z,22.14
2023-07-19T11:09:07.950Z,22.30
2023-07-19T11:11:41.794Z,22.64
2023-07-19T11:14:09.779Z,22.54
2023-07-19T11:16:38.920Z,22.35
2023-07-19T11:19:06.937Z,21.88
2023-07-19T11:21:35.712Z,22.01
2023-07-19T11:24:04.251Z,22.16
2023-07-19T11:26:32.357Z,22.21
2023-07-19T11:29:02.245Z,22.30
2023-07-19T11:31:32.918Z,22.49
2023-07-19T11:34:08.875Z,22.67
2023-07-19T11:36:40.995Z,23.14
2023-07-19T11:39:15.815Z,23.66
2023-07-19T11:41:43.897Z,23.89
2023-07-19T11:44:17.500Z,23.20
2023-07-19T11:46:45.461Z,22.78
2023-07-19T11:49:14.562Z,22.64
2023-07-19T11:51:43.145Z,22.31
2023-07-19T11:54:12.129Z,21.95
2023-07-19T11:56:40.112Z,21.75
2023-07-19T11:59:08.118Z,21.90
2023-07-19T12:01:38.504Z,21.88
2023-07-19T12:04:06.561Z,21.78
2023-07-19T12:06:35.526Z,21.67
2023-07-19T12:09:04.159Z,21.49
2023-07-19T12:11:32.171Z,21.39
2023-07-19T12:14:01.462Z,21.34
2023-07-19T12:16:29.965Z,21.40
2023-07-19T12:18:59.804Z,21.34
2023-07-19T12:21:28.479Z,21.46
2023-07-19T12:23:59.598Z,21.70
2023-07-19T12:28:59.842Z,21.76
2023-07-19T12:31:27.947Z,21.86
2023-07-19T12:33:57.968Z,22.16
2023-07-19T12:36:28.212Z,22.86
2023-07-19T12:38:57.665Z,23.23
2023-07-19T12:41:26.180Z,23.69
2023-07-19T12:43:54.158Z,23.76
2023-07-19T12:46:23.854Z,23.20
2023-07-19T12:48:52.248Z,23.63
2023-07-19T12:51:21.622Z,23.69
2023-07-19T12:53:51.486Z,23.54
2023-07-19T12:56:19.678Z,23.30
2023-07-19T12:58:48.302Z,23.24
2023-07-19T13:01:16.449Z,23.25
2023-07-19T13:03:45.433Z,23.18
2023-07-19T13:06:14.017Z,23.06
2023-07-19T13:08:42.177Z,23.59
2023-07-19T13:11:12.587Z,23.45
2023-07-19T13:13:41.071Z,22.94
2023-07-19T13:16:09.018Z,23.17
2023-07-19T13:18:37.973Z,23.37
2023-07-19T13:21:06.557Z,23.49
2023-07-19T13:23:34.726Z,25.63
2023-07-19T13:26:02.736Z,26.32
2023-07-19T13:28:32.640Z,23.98
2023-07-19T13:31:01.332Z,23.44
2023-07-19T13:33:30.718Z,23.41
2023-07-19T13:35:59.178Z,23.47
2023-07-19T13:38:28.763Z,23.57
2023-07-19T13:40:57.801Z,23.66
2023-07-19T13:43:25.761Z,23.81
2023-07-19T13:45:55.650Z,24.84
2023-07-19T13:48:24.593Z,27.43
2023-07-19T13:50:52.655Z,25.29
2023-07-19T13:53:21.424Z,25.39
2023-07-19T13:55:49.989Z,24.55
2023-07-19T13:58:18.029Z,23.84
2023-07-19T14:00:46.529Z,23.59
2023-07-19T14:03:17.928Z,23.30
2023-07-19T14:05:45.912Z,23.04
2023-07-19T14:08:15.395Z,22.89
2023-07-19T14:10:44.015Z,23.08
2023-07-19T14:16:04.751Z,23.54
2023-07-19T14:18:36.147Z,26.80
2023-07-19T14:21:10.117Z,27.70
2023-07-19T14:23:39.913Z,29.12
2023-07-19T14:26:07.902Z,30.00
2023-07-19T14:28:36.861Z,30.60
2023-07-19T14:31:05.506Z,28.77
2023-07-19T14:33:35.073Z,26.59
2023-07-19T14:36:04.871Z,24.91
2023-07-19T14:38:34.922Z,24.32
2023-07-19T14:41:03.650Z,24.08
2023-07-19T14:43:32.216Z,24.09
2023-07-19T14:46:00.288Z,24.20
2023-07-19T14:48:29.225Z,26.07
2023-07-19T14:50:58.641Z,26.22
2023-07-19T14:53:27.717Z,26.44
2023-07-19T14:55:56.569Z,25.46
2023-07-19T14:58:24.658Z,25.16
2023-07-19T15:00:56.499Z,24.56
2023-07-19T15:05:58.299Z,24.73
2023-07-19T15:08:27.312Z,24.49
2023-07-19T15:10:57.016Z,25.16
2023-07-19T15:13:25.728Z,24.29
2023-07-19T15:15:56.159Z,23.34
2023-07-19T15:18:28.172Z,22.84
2023-07-19T15:20:58.071Z,22.65
2023-07-19T15:23:27.218Z,22.39
2023-07-19T15:25:55.496Z,22.45
2023-07-19T15:28:29.820Z,22.43
2023-07-19T15:30:59.636Z,22.22
2023-07-19T15:33:27.831Z,22.32
2023-07-19T15:35:59.998Z,22.10
2023-07-19T15:38:41.244Z,22.10
2023-07-19T15:41:09.625Z,21.97
2023-07-19T15:43:38.499Z,21.98
2023-07-19T15:46:07.478Z,21.79
2023-07-19T15:48:37.736Z,21.44
2023-07-19T15:51:06.535Z,21.15
2023-07-19T15:53:37.411Z,20.91
2023-07-19T15:56:09.143Z,20.89
2023-07-19T15:58:37.327Z,20.78
2023-07-19T16:01:07.483Z,20.72
2023-07-19T16:03:37.167Z,20.67
2023-07-19T16:06:07.944Z,20.56
2023-07-19T16:08:38.335Z,20.46
2023-07-19T16:11:07.498Z,20.18
2023-07-19T16:13:36.755Z,19.69
2023-07-19T16:16:05.524Z,19.30
2023-07-19T16:18:34.980Z,18.80
2023-07-19T16:21:03.679Z,18.40
2023-07-19T16:23:32.628Z,18.07
2023-07-19T16:26:00.632Z,17.83
2023-07-19T16:28:30.620Z,17.49
2023-07-19T16:30:58.722Z,16.93
2023-07-19T16:33:27.951Z,16.61
2023-07-19T16:35:55.966Z,16.43
2023-07-19T16:38:24.913Z,16.34
2023-07-19T16:40:52.900Z,16.30
2023-07-19T16:43:24.799Z,16.42
2023-07-19T16:45:55.716Z,16.52
2023-07-19T16:48:23.612Z,16.70
2023-07-19T16:50:52.026Z,17.01
2023-07-19T16:53:21.804Z,17.00
2023-07-19T16:55:49.873Z,17.04
2023-07-19T16:58:18.553Z,17.02
2023-07-19T17:00:47.013Z,17.22
2023-07-19T17:03:16.937Z,17.35
2023-07-19T17:05:45.864Z,17.67
2023-07-19T17:08:14.387Z,17.93
2023-07-19T17:10:43.392Z,17.95
2023-07-19T17:13:11.890Z,18.07
2023-07-19T17:15:40.158Z,18.64
2023-07-19T17:18:10.094Z,19.48
2023-07-19T17:20:41.326Z,19.79
2023-07-19T17:23:24.780Z,19.50
2023-07-19T17:26:22.790Z,18.84
2023-07-19T17:28:51.856Z,18.49
2023-07-19T17:31:21.210Z,18.22
2023-07-19T17:33:52.349Z,17.99
2023-07-19T17:36:22.587Z,17.85
2023-07-19T17:38:50.961Z,17.80
2023-07-19T17:41:20.192Z,17.63
2023-07-19T17:43:49.640Z,17.51
2023-07-19T17:46:20.730Z,17.51
2023-07-19T17:48:52.489Z,17.51
2023-07-19T17:51:23.084Z,17.40
2023-07-19T17:53:51.647Z,17.34
2023-07-19T17:56:19.777Z,17.34
2023-07-19T17:58:47.822Z,17.35
2023-07-19T18:01:17.181Z,17.39
2023-07-19T18:03:45.516Z,17.45
2023-07-19T18:06:13.620Z,17.37
2023-07-19T18:08:43.031Z,17.20
2023-07-19T18:11:11.129Z,17.24
2023-07-19T18:13:39.580Z,17.24
2023-07-19T18:16:08.007Z,17.30
2023-07-19T18:18:35.977Z,17.24
2023-07-19T18:21:04.171Z,17.15
2023-07-19T18:23:32.889Z,17.09
2023-07-19T18:26:02.278Z,17.15
2023-07-19T18:28:30.697Z,17.11
2023-07-19T18:30:58.819Z,17.12
2023-07-19T18:33:27.363Z,17.00
2023-07-19T18:35:55.352Z,16.92
2023-07-19T18:38:23.879Z,16.94
2023-07-19T18:40:52.048Z,16.95
2023-07-19T18:43:21.429Z,16.87
2023-07-19T18:45:50.106Z,16.82
2023-07-19T18:48:18.506Z,16.78
2023-07-19T18:50:46.997Z,16.81
2023-07-19T18:53:16.109Z,16.71
2023-07-19T18:55:44.444Z,16.66
2023-07-19T18:58:13.153Z,16.50
2023-07-19T19:00:42.666Z,16.38
2023-07-19T19:03:11.360Z,16.49
2023-07-19T19:05:42.181Z,16.51
2023-07-19T19:08:10.316Z,16.41
2023-07-19T19:10:39.206Z,16.47
2023-07-19T19:13:07.272Z,16.41
2023-07-19T19:15:36.129Z,16.39
2023-07-19T19:18:05.601Z,16.45
2023-07-19T19:20:33.730Z,16.44
2023-07-19T19:23:03.069Z,16.39
2023-07-19T19:25:33.081Z,16.37
2023-07-19T19:28:02.275Z,16.37
2023-07-19T19:30:31.506Z,16.33
2023-07-19T19:33:00.302Z,16.33
2023-07-19T19:35:29.773Z,16.34
2023-07-19T19:37:57.734Z,16.21
2023-07-19T19:40:26.321Z,16.06
2023-07-19T19:42:54.380Z,16.10
2023-07-19T19:45:23.457Z,16.03
2023-07-19T19:47:51.486Z,16.05
2023-07-19T19:50:19.448Z,16.12
2023-07-19T19:52:59.264Z,16.08
2023-07-19T19:58:08.507Z,16.06
2023-07-19T20:00:36.502Z,16.11
2023-07-19T20:08:08.967Z,16.17
2023-07-19T20:10:38.108Z,16.10
2023-07-19T20:13:06.778Z,16.03
2023-07-19T20:15:47.838Z,16.03
2023-07-19T20:20:47.957Z,16.02
2023-07-19T20:23:17.400Z,16.00
2023-07-19T20:26:01.111Z,16.06
2023-07-19T20:28:34.627Z,16.01
2023-07-19T20:31:06.414Z,15.98
2023-07-19T20:33:35.835Z,16.01
2023-07-19T20:36:05.669Z,15.98
2023-07-19T20:43:39.024Z,15.83
2023-07-19T20:46:07.588Z,15.78
2023-07-19T20:48:38.415Z,15.82
2023-07-19T20:51:11.360Z,15.73
2023-07-19T20:53:41.141Z,15.65
2023-07-19T20:56:10.086Z,15.62
2023-07-19T20:58:38.755Z,15.56
2023-07-19T21:01:07.350Z,15.56
2023-07-19T21:03:35.875Z,15.65
2023-07-19T21:06:03.907Z,15.58
2023-07-19T21:08:31.998Z,15.59
2023-07-19T21:11:01.509Z,15.56
2023-07-19T21:13:29.649Z,15.52
2023-07-19T21:15:58.477Z,15.51
2023-07-19T21:18:26.481Z,15.56
2023-07-19T21:20:55.009Z,15.57
2023-07-19T21:23:23.331Z,15.56
2023-07-19T21:25:51.270Z,15.48
2023-07-19T21:28:21.301Z,15.47
2023-07-19T21:30:49.852Z,15.50
2023-07-19T21:33:18.378Z,15.52
2023-07-19T21:35:46.312Z,15.51
2023-07-19T21:38:14.960Z,15.55
2023-07-19T21:40:44.085Z,15.57
2023-07-19T21:43:12.089Z,15.62
2023-07-19T21:45:42.953Z,15.55
2023-07-19T21:48:11.040Z,15.60
2023-07-19T21:50:43.594Z,15.60
2023-07-19T21:53:13.067Z,15.61
2023-07-19T21:55:42.147Z,15.66
2023-07-19T21:58:11.133Z,15.67
2023-07-19T22:00:41.592Z,15.68
2023-07-19T22:03:13.189Z,15.68
2023-07-19T22:05:42.382Z,15.70
2023-07-19T22:08:10.625Z,15.66
2023-07-19T22:10:39.130Z,15.61
2023-07-19T22:13:08.505Z,15.58
2023-07-19T22:15:37.128Z,15.56
2023-07-19T22:18:18.272Z,15.49
2023-07-19T22:20:49.012Z,15.42
2023-07-19T22:23:17.364Z,15.54
2023-07-19T22:25:46.270Z,15.62
2023-07-19T22:28:15.792Z,15.61
2023-07-19T22:30:44.951Z,15.65
2023-07-19T22:33:15.443Z,15.47
2023-07-19T22:35:43.485Z,15.30
2023-07-19T22:38:11.501Z,15.21
2023-07-19T22:40:40.713Z,15.26
2023-07-19T22:43:08.721Z,15.29
2023-07-19T22:45:37.188Z,15.18
2023-07-19T22:48:08.461Z,15.23
2023-07-19T22:50:38.962Z,15.14
2023-07-19T22:53:07.022Z,15.24
2023-07-19T22:55:35.461Z,15.19
2023-07-19T22:58:04.343Z,15.03
2023-07-19T23:00:32.659Z,14.96
2023-07-19T23:03:01.296Z,14.99
2023-07-19T23:05:29.446Z,14.90
2023-07-19T23:07:59.374Z,14.93
2023-07-19T23:10:27.809Z,14.97
2023-07-19T23:12:55.771Z,14.90
2023-07-19T23:15:24.511Z,15.09
2023-07-19T23:17:53.820Z,15.01
2023-07-19T23:20:23.023Z,15.00
2023-07-19T23:22:51.161Z,14.98
2023-07-19T23:25:20.749Z,14.93
2023-07-19T23:27:49.607Z,14.92
2023-07-19T23:30:17.905Z,15.00
2023-07-19T23:32:46.419Z,14.98
2023-07-19T23:35:14.453Z,14.93
2023-07-19T23:37:42.938Z,15.00
2023-07-19T23:40:12.140Z,14.93
2023-07-19T23:42:41.492Z,14.89
2023-07-19T23:45:10.949Z,14.91
2023-07-19T23:47:38.983Z,14.91
2023-07-19T23:50:08.662Z,14.86
2023-07-19T23:52:37.251Z,14.82
2023-07-19T23:55:06.300Z,14.85
2023-07-19T23:57:34.950Z,14.78
